Time;durP1;ratioP1;P1;durP2;ratioP2;P2;SDS_P1;SDS_P2;PMS_P1;PMS_P2;Temp;Humidity;BMP_temperature;BMP_pressure;BME280_temperature;BME280_humidity;BME280_pressure;Samples;Min_cycle;Max_cycle;Signal;HPM_P1;HPM_P2
2022/08/14 00:01:55;;;;;;;2.57;2.40;;;;;;;;;;5035641;28;20469;-68
2022/08/14 00:04:20;;;;;;;2.47;2.40;;;;;;;;;;5035621;28;20411;-68
2022/08/14 00:06:46;;;;;;;2.67;2.47;;;;;;;;;;5035532;28;20464;-68
2022/08/14 00:09:12;;;;;;;5.60;2.00;;;;;;;;;;5035772;28;20417;-68
2022/08/14 00:11:39;;;;;;;2.50;2.03;;;;;;;;;;5035432;28;20501;-68
2022/08/14 00:14:05;;;;;;;2.20;2.20;;;;;;;;;;5035696;28;20767;-68
2022/08/14 00:16:31;;;;;;;6.93;2.60;;;;;;;;;;5035334;28;20565;-68
2022/08/14 00:18:57;;;;;;;2.40;2.30;;;;;;;;;;5035364;28;20493;-68
2022/08/14 00:21:23;;;;;;;2.40;2.40;;;;;;;;;;5035304;28;20534;-68
2022/08/14 00:23:50;;;;;;;4.57;2.00;;;;;;;;;;5035330;28;20818;-68
2022/08/14 00:26:16;;;;;;;2.30;2.20;;;;;;;;;;5035413;28;20459;-68
2022/08/14 00:28:42;;;;;;;2.23;2.17;;;;;;;;;;5017389;28;20421;-68
2022/08/14 00:31:08;;;;;;;2.03;2.03;;;;;;;;;;5035133;28;20422;-68
2022/08/14 00:33:35;;;;;;;1.97;1.97;;;;;;;;;;5017322;28;20904;-68
2022/08/14 00:36:01;;;;;;;5.30;2.43;;;;;;;;;;5035221;28;20517;-68
2022/08/14 00:38:27;;;;;;;2.50;2.40;;;;;;;;;;5035273;28;20969;-68
2022/08/14 00:40:53;;;;;;;2.00;1.80;;;;;;;;;;5035026;28;20404;-68
2022/08/14 00:43:18;;;;;;;3.23;2.17;;;;;;;;;;5034814;28;20476;-68
2022/08/14 00:45:45;;;;;;;2.50;2.40;;;;;;;;;;5033780;28;20466;-68
2022/08/14 00:48:11;;;;;;;2.40;2.13;;;;;;;;;;5035025;28;20415;-68
2022/08/14 00:50:37;;;;;;;2.43;2.13;;;;;;;;;;5034771;28;20760;-68
2022/08/14 00:53:04;;;;;;;2.20;2.10;;;;;;;;;;5034735;28;20499;-68
2022/08/14 00:55:30;;;;;;;3.70;2.10;;;;;;;;;;5034792;28;20477;-68
2022/08/14 01:00:42;;;;;;;2.47;2.27;;;;;;;;;;5034882;28;20976;-68
2022/08/14 01:03:08;;;;;;;2.00;1.90;;;;;;;;;;5034736;28;20439;-69
2022/08/14 01:05:34;;;;;;;2.17;2.10;;;;;;;;;;5034502;28;20393;-69
2022/08/14 01:08:01;;;;;;;4.83;2.53;;;;;;;;;;5034431;28;20444;-68
2022/08/14 01:13:15;;;;;;;2.67;2.57;;;;;;;;;;5034349;28;20462;-68
2022/08/14 01:15:42;;;;;;;2.50;2.40;;;;;;;;;;5034105;28;20412;-69
2022/08/14 01:21:05;;;;;;;2.30;2.20;;;;;;;;;;5034239;28;20522;-68
2022/08/14 01:23:31;;;;;;;2.30;2.10;;;;;;;;;;5034145;28;20970;-68
2022/08/14 01:25:58;;;;;;;2.13;2.07;;;;;;;;;;5034064;28;20407;-68
2022/08/14 01:28:30;;;;;;;2.30;2.20;;;;;;;;;;5034079;28;20404;-69
2022/08/14 01:30:56;;;;;;;1.80;1.80;;;;;;;;;;5033938;28;20398;-68
2022/08/14 01:33:28;;;;;;;2.90;2.70;;;;;;;;;;5033947;28;20399;-69
2022/08/14 01:35:59;;;;;;;2.97;2.67;;;;;;;;;;5033849;28;20487;-68
2022/08/14 01:38:27;;;;;;;2.40;2.33;;;;;;;;;;5033967;28;20446;-68
2022/08/14 01:40:53;;;;;;;2.73;2.63;;;;;;;;;;5033925;28;20953;-68
2022/08/14 01:43:19;;;;;;;2.30;2.30;;;;;;;;;;5033655;28;20510;-68
2022/08/14 01:45:50;;;;;;;3.27;2.70;;;;;;;;;;5033763;28;20877;-68
2022/08/14 01:48:16;;;;;;;7.93;2.60;;;;;;;;;;5033767;28;20399;-67
2022/08/14 01:50:42;;;;;;;2.70;2.47;;;;;;;;;;5033955;28;20414;-68
2022/08/14 01:53:08;;;;;;;7.13;2.33;;;;;;;;;;5033926;28;20425;-68
2022/08/14 01:55:38;;;;;;;2.67;2.40;;;;;;;;;;5033233;28;20405;-69
2022/08/14 01:58:04;;;;;;;4.00;2.23;;;;;;;;;;5033663;28;20422;-68
2022/08/14 02:00:30;;;;;;;3.23;2.30;;;;;;;;;;5033583;28;20416;-68
2022/08/14 02:02:57;;;;;;;2.07;1.97;;;;;;;;;;5033763;28;20422;-69
2022/08/14 02:05:28;;;;;;;4.67;2.43;;;;;;;;;;5033747;28;20408;-69
2022/08/14 02:07:55;;;;;;;2.80;2.70;;;;;;;;;;5033591;28;20394;-67
2022/08/14 02:10:21;;;;;;;3.27;2.50;;;;;;;;;;5033349;28;20409;-67
2022/08/14 02:12:47;;;;;;;2.80;2.70;;;;;;;;;;5033410;28;20411;-68
2022/08/14 02:15:17;;;;;;;2.33;2.33;;;;;;;;;;5033366;28;20404;-68
2022/08/14 02:17:43;;;;;;;2.97;2.87;;;;;;;;;;5033282;28;20465;-68
2022/08/14 02:20:09;;;;;;;4.17;2.80;;;;;;;;;;5033344;28;20406;-68
2022/08/14 02:22:37;;;;;;;3.90;2.30;;;;;;;;;;5033404;28;20890;-68
2022/08/14 02:25:03;;;;;;;3.63;2.70;;;;;;;;;;5033407;28;20405;-68
2022/08/14 02:27:29;;;;;;;5.80;2.40;;;;;;;;;;5033330;28;20410;-68
2022/08/14 02:29:55;;;;;;;2.57;2.47;;;;;;;;;;5033308;28;20412;-69
2022/08/14 02:32:21;;;;;;;2.33;2.13;;;;;;;;;;5033401;28;20890;-69
2022/08/14 02:34:47;;;;;;;2.13;2.13;;;;;;;;;;5033332;28;20494;-68
2022/08/14 02:37:14;;;;;;;3.37;3.07;;;;;;;;;;5033256;28;20480;-68
2022/08/14 02:39:42;;;;;;;3.13;2.80;;;;;;;;;;5033356;28;20969;-69
2022/08/14 02:42:10;;;;;;;2.60;2.50;;;;;;;;;;5033033;28;20444;-68
2022/08/14 02:44:38;;;;;;;2.47;2.37;;;;;;;;;;5033177;28;21028;-69
2022/08/14 02:47:04;;;;;;;3.17;3.17;;;;;;;;;;5033239;28;20398;-68
2022/08/14 02:49:30;;;;;;;2.50;2.40;;;;;;;;;;5033168;28;20520;-68
2022/08/14 02:51:57;;;;;;;2.80;2.70;;;;;;;;;;5033195;28;20406;-68
2022/08/14 02:54:23;;;;;;;2.00;1.90;;;;;;;;;;5033001;28;20886;-68
2022/08/14 02:56:53;;;;;;;2.70;2.60;;;;;;;;;;5033361;28;20889;-72
2022/08/14 02:59:20;;;;;;;2.13;2.13;;;;;;;;;;5033150;28;20406;-72
2022/08/14 03:01:46;;;;;;;3.13;2.70;;;;;;;;;;5033142;28;20544;-71
2022/08/14 03:04:13;;;;;;;2.50;2.50;;;;;;;;;;5033056;28;20442;-73
2022/08/14 03:06:42;;;;;;;3.20;3.10;;;;;;;;;;5032954;28;20902;-72
2022/08/14 03:09:08;;;;;;;2.53;2.33;;;;;;;;;;5035538;28;20400;-73
2022/08/14 03:11:34;;;;;;;2.60;2.60;;;;;;;;;;5036597;28;20499;-72
2022/08/14 03:14:00;;;;;;;2.50;2.50;;;;;;;;;;5036610;28;20419;-72
2022/08/14 03:16:34;;;;;;;3.30;2.30;;;;;;;;;;5036537;28;20478;-72
2022/08/14 03:19:01;;;;;;;2.63;2.53;;;;;;;;;;5036457;28;20406;-72
2022/08/14 03:21:28;;;;;;;6.87;3.10;;;;;;;;;;5036558;28;20438;-71
2022/08/14 03:24:13;;;;;;;2.93;2.83;;;;;;;;;;5036441;28;20416;-70
2022/08/14 03:26:40;;;;;;;3.60;3.10;;;;;;;;;;5036386;28;20409;-72
2022/08/14 03:29:06;;;;;;;2.60;2.40;;;;;;;;;;5036316;28;20416;-74
2022/08/14 03:31:32;;;;;;;7.23;3.07;;;;;;;;;;5036226;28;20770;-71
2022/08/14 03:33:59;;;;;;;4.50;2.93;;;;;;;;;;5036228;28;20450;-70
2022/08/14 03:36:25;;;;;;;3.03;2.83;;;;;;;;;;5036126;28;20470;-71
2022/08/14 03:38:54;;;;;;;3.10;3.10;;;;;;;;;;5036424;28;20439;-71
2022/08/14 03:41:24;;;;;;;2.80;2.70;;;;;;;;;;5036238;28;20830;-71
2022/08/14 03:43:54;;;;;;;3.37;3.23;;;;;;;;;;5035991;28;20928;-72
2022/08/14 03:46:20;;;;;;;2.50;2.40;;;;;;;;;;5035916;28;20847;-71
2022/08/14 03:48:47;;;;;;;3.50;3.23;;;;;;;;;;5035951;28;20404;-71
2022/08/14 03:51:14;;;;;;;3.00;2.90;;;;;;;;;;5035972;28;20525;-72
2022/08/14 03:53:42;;;;;;;3.70;3.50;;;;;;;;;;5035909;28;20447;-70
2022/08/14 03:56:13;;;;;;;3.00;2.90;;;;;;;;;;5035746;28;20454;-72
2022/08/14 03:58:41;;;;;;;2.67;2.67;;;;;;;;;;5018083;28;20560;-72
2022/08/14 04:01:07;;;;;;;3.63;3.43;;;;;;;;;;5035737;28;20974;-71
2022/08/14 04:03:34;;;;;;;9.93;3.40;;;;;;;;;;5035651;28;20894;-71
2022/08/14 04:06:00;;;;;;;2.80;2.60;;;;;;;;;;5035673;28;20886;-70
2022/08/14 04:08:26;;;;;;;3.43;2.73;;;;;;;;;;5035619;28;20415;-71
2022/08/14 04:10:52;;;;;;;3.00;2.83;;;;;;;;;;5035569;28;20419;-71
2022/08/14 04:13:18;;;;;;;3.57;2.90;;;;;;;;;;5035455;28;20886;-73
2022/08/14 04:15:45;;;;;;;2.93;2.73;;;;;;;;;;5035386;28;20493;-72
2022/08/14 04:18:11;;;;;;;2.93;2.73;;;;;;;;;;5035481;28;20514;-71
2022/08/14 04:20:39;;;;;;;3.87;3.40;;;;;;;;;;5035122;28;20418;-70
2022/08/14 04:23:05;;;;;;;3.50;3.40;;;;;;;;;;5035283;28;20884;-71
2022/08/14 04:25:32;;;;;;;4.23;3.73;;;;;;;;;;5017647;28;20426;-71
2022/08/14 04:27:59;;;;;;;4.23;2.87;;;;;;;;;;5035286;28;20410;-72
2022/08/14 04:30:29;;;;;;;3.40;3.10;;;;;;;;;;5035181;28;20411;-71
2022/08/14 04:32:55;;;;;;;3.80;3.50;;;;;;;;;;5035145;28;20911;-73
2022/08/14 04:35:21;;;;;;;3.90;3.60;;;;;;;;;;5035315;28;20406;-72
2022/08/14 04:43:35;;;;;;;3.50;3.30;;;;;;;;;;5034847;28;20512;-72
2022/08/14 04:46:01;;;;;;;3.83;3.63;;;;;;;;;;5034884;28;20440;-71
2022/08/14 04:48:28;;;;;;;8.63;3.17;;;;;;;;;;5034814;28;20760;-72
2022/08/14 04:50:55;;;;;;;2.97;2.90;;;;;;;;;;5034756;28;20885;-71
2022/08/14 04:53:23;;;;;;;3.17;3.07;;;;;;;;;;5017343;28;20782;-73
2022/08/14 04:55:49;;;;;;;3.27;3.17;;;;;;;;;;5016879;28;20431;-71
2022/08/14 04:58:16;;;;;;;4.30;3.00;;;;;;;;;;5034670;28;20794;-71
2022/08/14 05:00:42;;;;;;;3.57;3.47;;;;;;;;;;5034896;28;20415;-71
2022/08/14 05:03:09;;;;;;;3.40;3.27;;;;;;;;;;5034512;28;20406;-72
2022/08/14 05:05:35;;;;;;;3.60;3.40;;;;;;;;;;5034499;28;20494;-71
2022/08/14 05:08:10;;;;;;;8.30;2.90;;;;;;;;;;5034521;28;20426;-71
2022/08/14 05:10:36;;;;;;;3.20;3.10;;;;;;;;;;5034367;28;20548;-71
2022/08/14 05:13:04;;;;;;;7.27;3.70;;;;;;;;;;5034396;28;20887;-72
2022/08/14 05:15:30;;;;;;;3.87;3.70;;;;;;;;;;5034326;28;20402;-71
2022/08/14 05:17:56;;;;;;;6.50;3.10;;;;;;;;;;5034213;28;20474;-71
2022/08/14 05:20:23;;;;;;;3.97;3.67;;;;;;;;;;5034244;28;20414;-71
2022/08/14 05:22:49;;;;;;;4.47;3.40;;;;;;;;;;5034380;28;20800;-71
2022/08/14 05:25:15;;;;;;;4.10;3.80;;;;;;;;;;5034158;28;20435;-70
2022/08/14 05:27:41;;;;;;;3.23;3.03;;;;;;;;;;5034115;28;20439;-72
2022/08/14 05:30:07;;;;;;;5.37;3.57;;;;;;;;;;5033895;28;20399;-69
2022/08/14 05:32:33;;;;;;;9.07;3.40;;;;;;;;;;5033647;28;20420;-70
2022/08/14 05:34:59;;;;;;;10.93;9.13;;;;;;;;;;5034000;28;20412;-70
2022/08/14 05:37:26;;;;;;;6.40;5.17;;;;;;;;;;5033889;28;21004;-69
2022/08/14 05:39:53;;;;;;;3.53;3.40;;;;;;;;;;5033903;28;20407;-69
2022/08/14 05:42:20;;;;;;;4.50;4.10;;;;;;;;;;5033571;28;20476;-70
2022/08/14 05:44:46;;;;;;;5.20;4.53;;;;;;;;;;5033730;28;20483;-70
2022/08/14 05:47:12;;;;;;;4.90;4.57;;;;;;;;;;5033763;28;20446;-71
2022/08/14 05:49:38;;;;;;;4.70;3.40;;;;;;;;;;5033719;28;20843;-71
2022/08/14 05:52:06;;;;;;;3.50;3.20;;;;;;;;;;5033702;28;20437;-71
2022/08/14 05:54:31;;;;;;;3.10;2.90;;;;;;;;;;5033652;28;20401;-71
2022/08/14 05:56:57;;;;;;;21.93;19.63;;;;;;;;;;5033562;28;20474;-69
2022/08/14 05:59:23;;;;;;;27.70;24.13;;;;;;;;;;5033572;28;20542;-71
2022/08/14 06:01:49;;;;;;;7.97;7.03;;;;;;;;;;5033625;28;20914;-69
2022/08/14 06:04:16;;;;;;;4.97;4.73;;;;;;;;;;5033526;28;20782;-69
2022/08/14 06:06:42;;;;;;;3.60;3.37;;;;;;;;;;5033491;28;20406;-70
2022/08/14 06:09:09;;;;;;;4.47;4.17;;;;;;;;;;5033692;28;20415;-69
2022/08/14 06:11:35;;;;;;;3.60;3.50;;;;;;;;;;5033246;28;20848;-69
2022/08/14 06:14:01;;;;;;;5.90;3.87;;;;;;;;;;5033435;28;20433;-72
2022/08/14 06:16:27;;;;;;;7.53;3.70;;;;;;;;;;5033314;28;20803;-70
2022/08/14 06:18:53;;;;;;;3.30;3.10;;;;;;;;;;5033321;28;20503;-71
2022/08/14 06:21:19;;;;;;;3.47;3.37;;;;;;;;;;5033335;28;20397;-69
2022/08/14 06:23:45;;;;;;;8.37;5.07;;;;;;;;;;5033373;28;20415;-68
2022/08/14 06:26:11;;;;;;;3.53;3.10;;;;;;;;;;5033545;28;20393;-70
2022/08/14 06:28:37;;;;;;;4.17;3.87;;;;;;;;;;5033274;28;20477;-70
2022/08/14 06:31:03;;;;;;;4.20;3.40;;;;;;;;;;5033223;28;20491;-70
2022/08/14 06:33:29;;;;;;;7.20;4.40;;;;;;;;;;5033373;28;20440;-68
2022/08/14 06:35:55;;;;;;;5.20;3.10;;;;;;;;;;5033162;28;20456;-70
2022/08/14 06:38:22;;;;;;;3.53;3.33;;;;;;;;;;5033209;28;20801;-71
2022/08/14 06:40:48;;;;;;;28.70;8.47;;;;;;;;;;5033137;28;20433;-69
2022/08/14 06:43:15;;;;;;;4.13;3.80;;;;;;;;;;5034250;28;20480;-69
2022/08/14 06:45:42;;;;;;;3.87;3.63;;;;;;;;;;5037098;28;20398;-70
2022/08/14 06:48:13;;;;;;;6.83;3.63;;;;;;;;;;5037272;28;20410;-70
2022/08/14 06:50:39;;;;;;;6.73;3.63;;;;;;;;;;5037289;28;20403;-70
2022/08/14 06:53:08;;;;;;;3.93;3.73;;;;;;;;;;5036984;28;20407;-71
2022/08/14 06:55:34;;;;;;;3.50;3.30;;;;;;;;;;5036931;28;20457;-70
2022/08/14 06:58:00;;;;;;;2.90;2.80;;;;;;;;;;5036895;28;20420;-70
2022/08/14 07:00:27;;;;;;;3.53;3.40;;;;;;;;;;5036983;28;20402;-70
2022/08/14 07:05:45;;;;;;;4.40;3.73;;;;;;;;;;5037038;28;20955;-70
2022/08/14 07:08:13;;;;;;;4.43;3.70;;;;;;;;;;5036744;28;20774;-70
2022/08/14 07:10:39;;;;;;;3.13;3.03;;;;;;;;;;5036780;28;20403;-71
2022/08/14 07:13:05;;;;;;;2.97;2.80;;;;;;;;;;5036609;28;20933;-70
2022/08/14 07:15:34;;;;;;;2.83;2.73;;;;;;;;;;5036471;28;20404;-73
2022/08/14 07:18:00;;;;;;;2.67;2.57;;;;;;;;;;5036514;28;20502;-70
2022/08/14 07:20:26;;;;;;;9.40;3.20;;;;;;;;;;5036499;28;20403;-70
2022/08/14 07:22:57;;;;;;;2.50;2.40;;;;;;;;;;5036427;28;20404;-71
2022/08/14 07:25:23;;;;;;;2.93;2.83;;;;;;;;;;5036406;28;20412;-69
2022/08/14 07:27:49;;;;;;;6.90;3.17;;;;;;;;;;5036290;28;20745;-69
2022/08/14 07:30:15;;;;;;;2.43;2.33;;;;;;;;;;5036281;28;20404;-71
2022/08/14 07:32:41;;;;;;;5.33;3.20;;;;;;;;;;5036308;28;20486;-71
2022/08/14 07:35:07;;;;;;;3.07;2.87;;;;;;;;;;5036182;28;20446;-70
2022/08/14 07:37:33;;;;;;;3.33;3.03;;;;;;;;;;5036296;28;20572;-70
2022/08/14 07:39:59;;;;;;;3.77;3.43;;;;;;;;;;5036171;28;20412;-70
2022/08/14 07:42:25;;;;;;;3.33;3.07;;;;;;;;;;5035966;28;20467;-70
2022/08/14 07:44:51;;;;;;;6.13;3.40;;;;;;;;;;5036048;28;20421;-68
2022/08/14 07:47:17;;;;;;;5.20;3.10;;;;;;;;;;5035929;28;20973;-72
2022/08/14 07:49:51;;;;;;;5.20;3.00;;;;;;;;;;5035934;28;20399;-71
2022/08/14 07:52:17;;;;;;;5.27;3.03;;;;;;;;;;5035839;28;20411;-70
2022/08/14 07:54:43;;;;;;;4.20;2.97;;;;;;;;;;5035216;28;20404;-70
2022/08/14 07:57:09;;;;;;;3.20;2.90;;;;;;;;;;5035636;28;21105;-71
2022/08/14 07:59:35;;;;;;;3.20;3.10;;;;;;;;;;5035711;28;20429;-70
2022/08/14 08:02:03;;;;;;;3.70;3.40;;;;;;;;;;5035734;28;20419;-70
2022/08/14 08:04:29;;;;;;;2.70;2.70;;;;;;;;;;5035608;28;20493;-68
2022/08/14 08:06:55;;;;;;;3.43;3.33;;;;;;;;;;5035632;28;20403;-71
2022/08/14 08:09:24;;;;;;;7.80;3.10;;;;;;;;;;5035648;28;20426;-71
2022/08/14 08:11:51;;;;;;;3.30;3.10;;;;;;;;;;5035652;28;20411;-71
2022/08/14 08:14:18;;;;;;;3.17;2.90;;;;;;;;;;5035550;28;20403;-69
2022/08/14 08:16:46;;;;;;;3.27;2.97;;;;;;;;;;5035366;28;20826;-70
2022/08/14 08:19:12;;;;;;;2.63;2.53;;;;;;;;;;5035412;28;20413;-70
2022/08/14 08:21:41;;;;;;;5.47;3.00;;;;;;;;;;5017539;28;20449;-71
2022/08/14 08:24:07;;;;;;;7.60;2.97;;;;;;;;;;5035591;28;20419;-71
2022/08/14 08:26:33;;;;;;;3.20;2.90;;;;;;;;;;5035247;28;20906;-71
2022/08/14 08:28:59;;;;;;;2.90;2.77;;;;;;;;;;5035203;28;20816;-70
2022/08/14 08:31:25;;;;;;;5.43;2.73;;;;;;;;;;5035182;28;20812;-71
2022/08/14 08:33:52;;;;;;;3.20;3.00;;;;;;;;;;5035139;28;20460;-70
2022/08/14 08:36:19;;;;;;;2.57;2.47;;;;;;;;;;5035001;28;20998;-72
2022/08/14 08:38:48;;;;;;;2.60;2.47;;;;;;;;;;5035068;28;20399;-71
2022/08/14 08:41:14;;;;;;;2.77;2.67;;;;;;;;;;5034934;28;20407;-71
2022/08/14 08:43:40;;;;;;;2.70;2.60;;;;;;;;;;5034943;28;20474;-69
2022/08/14 08:46:07;;;;;;;2.87;2.77;;;;;;;;;;5034930;28;20402;-70
2022/08/14 08:48:44;;;;;;;2.30;2.30;;;;;;;;;;5034801;28;20788;-70
2022/08/14 08:51:21;;;;;;;6.10;3.10;;;;;;;;;;5034751;28;20430;-72
2022/08/14 08:53:55;;;;;;;2.47;2.47;;;;;;;;;;5035011;28;20484;-71
2022/08/14 08:56:22;;;;;;;2.50;2.40;;;;;;;;;;5034792;28;20457;-71
2022/08/14 08:58:48;;;;;;;3.63;2.87;;;;;;;;;;5034894;28;20418;-71
2022/08/14 09:01:14;;;;;;;6.03;2.53;;;;;;;;;;5034573;28;20741;-70
2022/08/14 09:03:41;;;;;;;2.40;2.30;;;;;;;;;;5034526;28;20466;-70
2022/08/14 09:06:07;;;;;;;2.50;2.40;;;;;;;;;;5033834;28;20411;-67
2022/08/14 09:08:34;;;;;;;2.93;2.67;;;;;;;;;;5034377;28;20487;-69
2022/08/14 09:11:05;;;;;;;3.90;2.60;;;;;;;;;;5034313;28;20416;-68
2022/08/14 09:13:32;;;;;;;4.37;2.03;;;;;;;;;;5034301;28;20927;-68
2022/08/14 09:15:59;;;;;;;3.53;2.53;;;;;;;;;;5034217;28;20923;-66
2022/08/14 09:18:26;;;;;;;2.53;2.43;;;;;;;;;;5034370;28;20432;-66
2022/08/14 09:20:55;;;;;;;2.20;2.20;;;;;;;;;;5034119;28;20888;-68
2022/08/14 09:23:21;;;;;;;2.80;2.60;;;;;;;;;;5034174;28;20414;-69
2022/08/14 09:25:48;;;;;;;2.77;2.57;;;;;;;;;;5034131;28;20446;-70
2022/08/14 09:28:15;;;;;;;3.07;2.57;;;;;;;;;;5033958;28;20404;-70
2022/08/14 09:30:42;;;;;;;2.27;2.07;;;;;;;;;;5034073;28;20435;-69
2022/08/14 09:33:27;;;;;;;2.27;2.17;;;;;;;;;;5033957;28;20434;-71
2022/08/14 09:35:53;;;;;;;2.33;2.23;;;;;;;;;;5033827;28;20410;-70
2022/08/14 09:38:24;;;;;;;2.20;2.10;;;;;;;;;;5033983;28;20737;-73
2022/08/14 09:41:00;;;;;;;2.20;2.10;;;;;;;;;;5033898;28;20397;-70
2022/08/14 09:43:29;;;;;;;2.20;2.20;;;;;;;;;;5039632;28;20470;-69
2022/08/14 09:45:57;;;;;;;12.23;11.03;;;;;;;;;;5038147;28;20400;-76
2022/08/14 09:48:24;;;;;;;3.13;3.03;;;;;;;;;;5034404;28;20403;-72
2022/08/14 09:50:51;;;;;;;2.40;2.20;;;;;;;;;;5019201;28;20520;-72
2022/08/14 09:53:37;;;;;;;2.83;2.63;;;;;;;;;;5038912;28;20420;-74
2022/08/14 09:56:04;;;;;;;2.33;2.33;;;;;;;;;;5039902;28;20515;-80
2022/08/14 09:58:41;;;;;;;3.00;2.40;;;;;;;;;;5035531;28;20418;-74
2022/08/14 10:01:14;;;;;;;2.53;2.37;;;;;;;;;;5036339;28;20449;-77
2022/08/14 10:03:48;;;;;;;2.70;2.30;;;;;;;;;;5033630;28;20414;-74
2022/08/14 10:06:16;;;;;;;5.53;2.00;;;;;;;;;;5033461;28;20438;-74
2022/08/14 10:08:44;;;;;;;1.70;1.60;;;;;;;;;;5033524;28;20415;-74
2022/08/14 10:11:16;;;;;;;1.70;1.70;;;;;;;;;;5033519;28;20388;-76
2022/08/14 10:13:42;;;;;;;1.70;1.60;;;;;;;;;;5033342;28;20914;-75
2022/08/14 10:16:09;;;;;;;1.83;1.77;;;;;;;;;;5033419;28;20455;-75
2022/08/14 10:18:36;;;;;;;2.10;1.80;;;;;;;;;;5033095;28;20412;-75
2022/08/14 10:21:03;;;;;;;2.00;1.90;;;;;;;;;;5033272;28;20483;-77
2022/08/14 10:23:41;;;;;;;5.13;1.70;;;;;;;;;;5033009;28;20840;-73
2022/08/14 10:26:07;;;;;;;1.53;1.43;;;;;;;;;;5033635;28;20400;-70
2022/08/14 10:28:44;;;;;;;1.73;1.70;;;;;;;;;;5033232;28;20396;-74
2022/08/14 10:31:28;;;;;;;2.60;1.70;;;;;;;;;;5035014;28;20440;-75
2022/08/14 10:34:01;;;;;;;4.53;1.80;;;;;;;;;;5034322;28;20411;-76
2022/08/14 10:36:33;;;;;;;1.93;1.83;;;;;;;;;;5033411;28;20517;-76
2022/08/14 10:39:00;;;;;;;1.70;1.70;;;;;;;;;;5033425;28;20401;-71
2022/08/14 10:41:39;;;;;;;1.67;1.50;;;;;;;;;;5033292;28;20404;-75
2022/08/14 10:44:07;;;;;;;2.00;2.00;;;;;;;;;;5034392;28;20462;-75
2022/08/14 10:46:45;;;;;;;2.23;2.13;;;;;;;;;;5034346;28;20905;-74
2022/08/14 10:49:25;;;;;;;2.30;1.50;;;;;;;;;;5033760;28;20403;-74
2022/08/14 10:51:55;;;;;;;1.90;1.30;;;;;;;;;;5033094;28;20454;-74
2022/08/14 10:54:30;;;;;;;1.60;1.60;;;;;;;;;;5033097;28;20404;-71
2022/08/14 10:56:56;;;;;;;2.10;1.30;;;;;;;;;;5032974;28;20985;-72
2022/08/14 10:59:22;;;;;;;1.70;1.13;;;;;;;;;;5032999;28;20925;-72
2022/08/14 11:01:48;;;;;;;5.67;1.67;;;;;;;;;;5033101;28;20499;-72
2022/08/14 11:04:27;;;;;;;1.63;1.53;;;;;;;;;;5032917;28;20443;-75
2022/08/14 11:06:53;;;;;;;1.50;1.50;;;;;;;;;;5033029;28;20408;-74
2022/08/14 11:09:19;;;;;;;1.73;1.73;;;;;;;;;;5032999;28;20393;-72
2022/08/14 11:11:48;;;;;;;4.07;1.80;;;;;;;;;;5032894;28;20408;-75
2022/08/14 11:14:16;;;;;;;1.77;1.77;;;;;;;;;;5032995;28;20883;-78
2022/08/14 11:16:43;;;;;;;1.80;1.80;;;;;;;;;;5032891;28;20977;-76
2022/08/14 11:19:11;;;;;;;2.60;1.70;;;;;;;;;;5032897;28;20404;-73
2022/08/14 11:21:39;;;;;;;1.97;1.77;;;;;;;;;;5032868;28;20476;-72
2022/08/14 11:24:06;;;;;;;4.23;2.33;;;;;;;;;;5032773;28;20462;-75
2022/08/14 11:26:33;;;;;;;2.77;2.50;;;;;;;;;;5032845;28;20400;-73
2022/08/14 11:28:59;;;;;;;2.90;2.27;;;;;;;;;;5033572;28;20767;-76
2022/08/14 11:31:27;;;;;;;2.63;2.43;;;;;;;;;;5018682;28;20510;-75
2022/08/14 11:33:56;;;;;;;8.83;2.70;;;;;;;;;;5036295;28;20411;-75
2022/08/14 11:36:27;;;;;;;2.20;2.10;;;;;;;;;;5036397;28;20477;-74
2022/08/14 11:38:53;;;;;;;5.67;2.80;;;;;;;;;;5036345;28;20427;-73
2022/08/14 11:41:19;;;;;;;3.23;2.93;;;;;;;;;;5036449;28;20408;-76
2022/08/14 11:43:47;;;;;;;2.63;2.33;;;;;;;;;;5035900;28;20533;-73
2022/08/14 11:46:14;;;;;;;2.97;2.70;;;;;;;;;;5036338;28;20424;-78
2022/08/14 11:48:51;;;;;;;2.97;2.73;;;;;;;;;;5036088;28;20396;-75
2022/08/14 11:51:22;;;;;;;3.30;3.20;;;;;;;;;;5035923;28;20435;-78
2022/08/14 11:53:52;;;;;;;3.00;3.00;;;;;;;;;;5035923;28;20411;-73
2022/08/14 11:56:19;;;;;;;3.10;2.90;;;;;;;;;;5036107;28;20456;-73
2022/08/14 11:58:49;;;;;;;3.90;3.20;;;;;;;;;;5035934;28;20403;-74
2022/08/14 12:01:15;;;;;;;3.63;3.27;;;;;;;;;;5036264;28;20397;-81
2022/08/14 12:03:44;;;;;;;3.43;3.33;;;;;;;;;;5035987;28;20891;-78
2022/08/14 12:06:11;;;;;;;3.43;3.33;;;;;;;;;;5035798;28;20389;-73
2022/08/14 12:08:38;;;;;;;5.90;5.50;;;;;;;;;;5035673;28;20875;-76
2022/08/14 12:11:05;;;;;;;3.30;3.03;;;;;;;;;;5035768;28;20404;-76
2022/08/14 12:13:32;;;;;;;4.07;3.70;;;;;;;;;;5035840;28;20404;-78
2022/08/14 12:15:59;;;;;;;5.77;3.03;;;;;;;;;;5035567;28;20432;-76
2022/08/14 12:18:37;;;;;;;3.57;3.43;;;;;;;;;;5035842;28;20474;-76
2022/08/14 12:21:35;;;;;;;8.30;4.10;;;;;;;;;;5035780;28;20447;-74
2022/08/14 12:24:08;;;;;;;6.67;5.33;;;;;;;;;;4991882;28;20477;-75
2022/08/14 12:26:36;;;;;;;4.80;4.60;;;;;;;;;;5035409;28;20463;-76
2022/08/14 12:29:13;;;;;;;5.30;4.90;;;;;;;;;;5035255;28;20404;-77
2022/08/14 12:31:41;;;;;;;6.60;5.60;;;;;;;;;;5017572;28;20428;-75
2022/08/14 12:34:07;;;;;;;10.80;5.20;;;;;;;;;;5035113;28;20962;-72
2022/08/14 12:36:34;;;;;;;5.17;4.77;;;;;;;;;;5035113;28;20487;-77
2022/08/14 12:39:00;;;;;;;11.97;4.90;;;;;;;;;;5034992;28;20416;-74
2022/08/14 12:41:34;;;;;;;7.30;4.93;;;;;;;;;;5034967;28;20397;-75
2022/08/14 12:44:01;;;;;;;5.10;4.60;;;;;;;;;;5034846;28;20475;-76
2022/08/14 12:46:29;;;;;;;6.07;5.57;;;;;;;;;;5035001;28;20495;-75
2022/08/14 12:48:55;;;;;;;6.63;6.00;;;;;;;;;;5035172;28;20419;-75
2022/08/14 12:51:24;;;;;;;6.20;5.77;;;;;;;;;;5034779;28;20404;-75
2022/08/14 12:53:52;;;;;;;6.87;6.00;;;;;;;;;;5034779;28;20405;-73
2022/08/14 12:56:18;;;;;;;7.60;5.67;;;;;;;;;;5034678;28;20518;-73
2022/08/14 12:58:49;;;;;;;5.90;5.43;;;;;;;;;;5034700;28;20489;-74
2022/08/14 13:01:22;;;;;;;7.03;5.90;;;;;;;;;;5034604;28;20396;-76
2022/08/14 13:03:48;;;;;;;6.83;6.40;;;;;;;;;;5034590;28;20487;-74
2022/08/14 13:06:15;;;;;;;8.30;5.30;;;;;;;;;;5034473;28;20396;-76
2022/08/14 13:08:41;;;;;;;6.33;4.63;;;;;;;;;;5034551;28;20411;-73
2022/08/14 13:11:17;;;;;;;10.60;3.60;;;;;;;;;;5034437;28;20751;-74
2022/08/14 13:13:43;;;;;;;7.30;4.40;;;;;;;;;;5034320;28;20442;-73
2022/08/14 13:16:15;;;;;;;8.83;4.20;;;;;;;;;;5034223;28;20436;-74
2022/08/14 13:18:42;;;;;;;6.77;3.70;;;;;;;;;;5034270;28;20939;-74
2022/08/14 13:21:11;;;;;;;11.00;3.03;;;;;;;;;;5034314;28;20422;-75
2022/08/14 13:23:37;;;;;;;3.23;2.40;;;;;;;;;;5034210;28;20408;-74
2022/08/14 13:26:03;;;;;;;2.67;2.47;;;;;;;;;;5034228;28;20420;-72
2022/08/14 13:28:30;;;;;;;5.07;2.40;;;;;;;;;;5034172;28;20418;-74
2022/08/14 13:30:57;;;;;;;6.33;2.40;;;;;;;;;;5016333;28;20416;-76
2022/08/14 13:33:23;;;;;;;9.90;5.80;;;;;;;;;;5034268;28;20416;-75
2022/08/14 13:35:49;;;;;;;2.37;2.17;;;;;;;;;;5034282;28;20412;-75
2022/08/14 13:38:21;;;;;;;16.30;2.40;;;;;;;;;;5033984;28;20471;-76
2022/08/14 13:40:54;;;;;;;6.77;2.57;;;;;;;;;;5034019;28;20408;-74
2022/08/14 13:43:20;;;;;;;3.67;2.90;;;;;;;;;;5033688;28;20829;-76
2022/08/14 13:45:46;;;;;;;7.70;2.83;;;;;;;;;;5034198;28;20408;-77
2022/08/14 13:48:14;;;;;;;10.13;2.70;;;;;;;;;;5033871;28;20970;-80
2022/08/14 13:50:41;;;;;;;2.93;2.73;;;;;;;;;;5034266;28;20748;-75
2022/08/14 13:53:12;;;;;;;7.93;3.07;;;;;;;;;;5033511;28;20419;-75
2022/08/14 13:55:38;;;;;;;3.23;2.63;;;;;;;;;;5033805;28;20400;-74
2022/08/14 13:58:05;;;;;;;11.57;3.00;;;;;;;;;;5033575;28;20482;-74
2022/08/14 14:00:35;;;;;;;4.20;2.50;;;;;;;;;;5033756;28;20470;-72
2022/08/14 14:03:04;;;;;;;4.17;2.67;;;;;;;;;;5033649;28;20864;-72
2022/08/14 14:05:30;;;;;;;2.93;2.73;;;;;;;;;;5033653;28;20400;-72
2022/08/14 14:07:58;;;;;;;2.90;2.60;;;;;;;;;;5033834;28;20453;-71
2022/08/14 14:10:24;;;;;;;4.10;2.57;;;;;;;;;;5033522;28;20404;-69
2022/08/14 14:12:50;;;;;;;3.43;2.80;;;;;;;;;;5033514;28;20433;-71
2022/08/14 14:15:17;;;;;;;3.97;3.00;;;;;;;;;;5033543;28;20769;-71
2022/08/14 14:17:46;;;;;;;3.40;3.03;;;;;;;;;;5033311;28;20471;-71
2022/08/14 14:20:13;;;;;;;4.73;2.70;;;;;;;;;;5033405;28;20465;-71
2022/08/14 14:22:41;;;;;;;7.20;3.43;;;;;;;;;;5033337;28;20792;-69
2022/08/14 14:25:07;;;;;;;3.80;2.90;;;;;;;;;;5033316;28;20949;-70
2022/08/14 14:27:36;;;;;;;3.03;2.83;;;;;;;;;;5033411;28;20798;-73
2022/08/14 14:30:03;;;;;;;8.23;3.23;;;;;;;;;;5033631;28;20404;-76
2022/08/14 14:32:30;;;;;;;13.57;2.80;;;;;;;;;;5033397;28;20403;-75
2022/08/14 14:35:00;;;;;;;8.60;2.73;;;;;;;;;;5033233;28;20417;-73
2022/08/14 14:37:26;;;;;;;2.87;2.63;;;;;;;;;;5033263;28;20961;-73
2022/08/14 14:39:53;;;;;;;4.47;2.80;;;;;;;;;;5033129;28;20407;-74
2022/08/14 14:42:19;;;;;;;5.27;3.60;;;;;;;;;;5033101;28;20482;-73
2022/08/14 14:44:51;;;;;;;12.93;3.10;;;;;;;;;;5033163;28;20404;-72
2022/08/14 14:47:20;;;;;;;3.40;2.93;;;;;;;;;;5033154;28;20400;-72
2022/08/14 14:49:48;;;;;;;6.77;3.50;;;;;;;;;;5033198;28;20403;-74
2022/08/14 14:52:15;;;;;;;4.43;3.07;;;;;;;;;;5033123;28;20408;-73
2022/08/14 14:54:42;;;;;;;4.67;3.30;;;;;;;;;;5033243;28;20409;-73
2022/08/14 14:57:12;;;;;;;3.83;2.80;;;;;;;;;;5032870;28;20499;-72
2022/08/14 14:59:38;;;;;;;5.40;3.13;;;;;;;;;;5033053;28;20399;-74
2022/08/14 15:02:06;;;;;;;4.07;2.50;;;;;;;;;;5033027;28;20881;-75
2022/08/14 15:04:34;;;;;;;10.17;3.40;;;;;;;;;;5034585;28;20782;-74